Time;durP1;ratioP1;P1;durP2;ratioP2;P2;SDS_P1;SDS_P2;PMS_P1;PMS_P2;Temp;Humidity;BMP_temperature;BMP_pressure;BME280_temperature;BME280_humidity;BME280_pressure;Samples;Min_cycle;Max_cycle;Signal;HPM_P1;HPM_P2
2023/06/08 00:01:18;;;;;;;4.53;4.13;;;18.60;99.60;;;;;;6120424;23;20437;-75
2023/06/08 00:03:45;;;;;;;4.33;4.00;;;18.60;99.90;;;;;;6146554;23;21018;-75
2023/06/08 00:06:15;;;;;;;4.87;4.27;;;18.60;99.90;;;;;;6148785;23;20512;-75
2023/06/08 00:08:43;;;;;;;4.17;3.83;;;18.80;99.90;;;;;;6148617;23;20428;-75
2023/06/08 00:11:10;;;;;;;5.00;4.60;;;18.50;99.90;;;;;;6146221;23;20919;-75
2023/06/08 00:13:37;;;;;;;4.50;4.00;;;18.50;99.90;;;;;;6148744;23;20436;-75
2023/06/08 00:16:05;;;;;;;4.20;3.90;;;18.70;99.90;;;;;;6141593;23;20445;-76
2023/06/08 00:18:36;;;;;;;4.30;4.00;;;18.50;99.90;;;;;;6149076;23;20425;-76
2023/06/08 00:21:03;;;;;;;4.43;4.13;;;18.40;99.90;;;;;;6147628;23;20880;-77
2023/06/08 00:23:31;;;;;;;4.63;4.10;;;18.40;99.90;;;;;;6148277;23;20456;-76
2023/06/08 00:25:58;;;;;;;4.40;4.00;;;18.40;99.90;;;;;;6149282;23;20504;-76
2023/06/08 00:28:25;;;;;;;4.23;3.93;;;18.40;99.90;;;;;;6152607;23;20519;-76
2023/06/08 00:30:52;;;;;;;4.90;3.97;;;18.30;99.90;;;;;;6145949;23;20488;-77
2023/06/08 00:33:19;;;;;;;4.80;4.50;;;18.20;99.90;;;;;;6142390;23;20476;-76
2023/06/08 00:35:47;;;;;;;4.67;4.27;;;18.10;99.90;;;;;;6146199;23;20827;-76
2023/06/08 00:38:14;;;;;;;4.70;4.30;;;18.00;99.90;;;;;;6146816;23;20445;-76
2023/06/08 00:40:43;;;;;;;5.10;4.60;;;18.00;99.90;;;;;;6147938;23;20452;-76
2023/06/08 00:43:10;;;;;;;5.13;4.73;;;17.90;99.90;;;;;;6147091;23;20436;-76
2023/06/08 00:45:37;;;;;;;4.47;4.10;;;18.00;99.90;;;;;;6141763;23;20548;-76
2023/06/08 00:48:04;;;;;;;7.07;4.70;;;17.90;99.90;;;;;;6147312;23;20830;-77
2023/06/08 00:50:32;;;;;;;4.60;4.30;;;17.70;99.90;;;;;;6139512;23;20459;-77
2023/06/08 00:53:00;;;;;;;4.50;4.20;;;17.60;99.90;;;;;;6148948;23;20893;-77
2023/06/08 00:55:27;;;;;;;4.80;4.40;;;17.60;99.90;;;;;;6150010;23;20440;-77
2023/06/08 00:57:55;;;;;;;4.93;4.53;;;17.40;99.90;;;;;;6148152;23;20440;-76
2023/06/08 01:00:27;;;;;;;6.00;5.40;;;17.20;99.90;;;;;;6150920;23;20461;-76
2023/06/08 01:02:55;;;;;;;6.10;5.60;;;17.20;99.90;;;;;;6149623;23;20494;-77
2023/06/08 01:05:22;;;;;;;8.17;5.50;;;16.90;99.90;;;;;;6141542;23;21210;-77
2023/06/08 01:08:01;;;;;;;5.40;5.00;;;16.80;99.90;;;;;;6148888;23;20447;-78
2023/06/08 01:10:37;;;;;;;6.00;5.60;;;16.60;99.90;;;;;;6149215;23;20467;-78
2023/06/08 01:13:10;;;;;;;5.90;5.40;;;16.60;99.90;;;;;;6143017;23;20436;-78
2023/06/08 01:15:43;;;;;;;5.87;5.37;;;16.50;99.90;;;;;;6129308;23;20473;-78
2023/06/08 01:18:13;;;;;;;5.47;5.03;;;16.50;99.90;;;;;;6135121;23;20428;-77
2023/06/08 01:21:02;;;;;;;5.13;4.73;;;16.50;99.90;;;;;;6134059;23;20465;-78
2023/06/08 01:23:38;;;;;;;4.90;4.60;;;16.60;99.90;;;;;;6148934;23;20443;-77
2023/06/08 01:26:10;;;;;;;5.60;5.20;;;16.60;99.90;;;;;;6142699;23;20468;-78
2023/06/08 01:28:39;;;;;;;5.40;4.93;;;16.60;99.90;;;;;;6136925;23;20512;-77
2023/06/08 01:31:07;;;;;;;5.40;5.10;;;16.60;99.90;;;;;;6142240;23;20491;-78
2023/06/08 01:33:34;;;;;;;5.37;4.97;;;16.60;99.90;;;;;;6138448;23;20443;-76
2023/06/08 01:36:13;;;;;;;5.60;5.10;;;16.70;99.90;;;;;;6148526;23;20490;-77
2023/06/08 01:38:52;;;;;;;5.40;5.00;;;16.70;99.90;;;;;;6138094;23;20509;-77
2023/06/08 01:41:24;;;;;;;5.33;4.83;;;16.70;99.90;;;;;;6149402;23;20515;-76
2023/06/08 01:43:52;;;;;;;5.10;4.80;;;16.80;99.90;;;;;;6149869;23;20558;-77
2023/06/08 01:46:22;;;;;;;5.13;4.70;;;16.70;99.90;;;;;;6141899;23;20967;-77
2023/06/08 01:48:51;;;;;;;5.20;4.80;;;16.70;99.90;;;;;;6146420;23;20800;-76
2023/06/08 01:51:20;;;;;;;5.00;4.60;;;16.70;99.90;;;;;;6148247;23;20436;-76
2023/06/08 01:53:47;;;;;;;5.43;5.03;;;16.70;99.90;;;;;;6139785;23;20508;-77
2023/06/08 01:56:15;;;;;;;5.20;4.90;;;16.70;99.90;;;;;;6124210;23;20515;-76
2023/06/08 01:58:43;;;;;;;5.40;4.93;;;16.80;99.90;;;;;;6149938;23;20468;-76
2023/06/08 02:01:10;;;;;;;4.70;4.40;;;16.70;99.90;;;;;;6152129;23;20476;-77
2023/06/08 02:03:37;;;;;;;4.90;4.50;;;16.70;99.90;;;;;;6144940;23;21007;-76
2023/06/08 02:06:04;;;;;;;5.23;4.83;;;16.80;99.90;;;;;;6135517;23;20473;-77
2023/06/08 02:08:31;;;;;;;5.10;4.70;;;16.70;99.90;;;;;;6142580;23;20441;-77
2023/06/08 02:10:58;;;;;;;4.83;4.53;;;16.70;99.90;;;;;;6123137;23;20994;-76
2023/06/08 02:13:25;;;;;;;4.93;4.60;;;16.70;99.90;;;;;;6148066;23;20456;-77
2023/06/08 02:15:53;;;;;;;4.97;4.67;;;16.70;99.90;;;;;;6147321;23;20506;-77
2023/06/08 02:18:21;;;;;;;4.50;4.10;;;16.70;99.90;;;;;;6123760;23;20441;-77
2023/06/08 02:20:48;;;;;;;5.57;4.80;;;16.70;99.90;;;;;;6144416;23;20576;-77
2023/06/08 02:23:15;;;;;;;4.63;4.33;;;16.70;99.90;;;;;;6146625;23;20494;-77
2023/06/08 02:25:42;;;;;;;6.03;5.50;;;16.90;99.90;;;;;;6143716;23;20472;-76
2023/06/08 02:28:09;;;;;;;5.80;5.40;;;16.60;99.90;;;;;;6137624;23;20434;-77
2023/06/08 02:30:36;;;;;;;5.20;4.80;;;16.60;99.90;;;;;;6143701;23;20888;-77
2023/06/08 02:33:06;;;;;;;6.10;5.60;;;16.40;99.90;;;;;;6148814;23;20436;-77
2023/06/08 02:35:33;;;;;;;6.17;5.77;;;16.30;99.90;;;;;;6148239;23;20527;-77
2023/06/08 02:38:00;;;;;;;6.23;5.83;;;16.30;99.90;;;;;;6146054;23;20472;-78
2023/06/08 02:40:27;;;;;;;6.87;6.27;;;16.30;99.90;;;;;;6148370;23;20967;-77
2023/06/08 02:42:54;;;;;;;6.20;5.60;;;16.10;99.90;;;;;;6149345;23;20523;-77
2023/06/08 02:45:21;;;;;;;6.20;5.70;;;15.90;99.90;;;;;;6140232;23;20983;-77
2023/06/08 02:47:49;;;;;;;5.90;5.50;;;15.90;99.90;;;;;;6149343;23;20788;-77
2023/06/08 02:50:17;;;;;;;6.03;5.47;;;15.80;99.90;;;;;;6148298;23;20456;-77
2023/06/08 02:52:45;;;;;;;6.20;5.77;;;15.80;99.90;;;;;;6149110;23;20503;-77
2023/06/08 02:55:12;;;;;;;6.10;5.60;;;15.80;99.90;;;;;;6147635;23;20433;-77
2023/06/08 02:57:40;;;;;;;5.23;4.83;;;15.80;99.90;;;;;;6149482;23;20440;-77
2023/06/08 03:00:09;;;;;;;5.43;5.03;;;15.80;99.90;;;;;;6139729;23;20502;-77
2023/06/08 03:02:36;;;;;;;5.90;5.50;;;15.80;99.90;;;;;;6131748;23;20444;-77
2023/06/08 03:05:03;;;;;;;5.50;5.10;;;15.80;99.90;;;;;;6128837;23;20521;-77
2023/06/08 03:07:33;;;;;;;5.97;5.57;;;15.80;99.90;;;;;;6147553;23;20443;-78
2023/06/08 03:10:00;;;;;;;5.67;5.17;;;15.80;99.90;;;;;;6129936;23;20518;-78
2023/06/08 03:12:27;;;;;;;5.53;5.13;;;15.80;99.90;;;;;;6149894;23;20428;-77
2023/06/08 03:14:54;;;;;;;5.03;4.53;;;15.60;99.90;;;;;;6130346;23;20539;-77
2023/06/08 03:17:22;;;;;;;5.50;5.10;;;15.60;99.90;;;;;;6144684;23;20441;-78
2023/06/08 03:19:49;;;;;;;6.53;6.03;;;15.50;99.90;;;;;;6145512;23;21043;-77
2023/06/08 03:22:16;;;;;;;5.67;5.27;;;15.50;99.90;;;;;;6146439;23;21260;-77
2023/06/08 03:24:48;;;;;;;5.37;4.97;;;15.40;99.90;;;;;;6147941;23;20495;-76
2023/06/08 03:27:16;;;;;;;5.63;5.23;;;15.40;99.90;;;;;;6146091;23;20540;-76
2023/06/08 03:29:43;;;;;;;5.97;5.57;;;15.30;99.90;;;;;;6146384;23;20484;-76
2023/06/08 03:32:10;;;;;;;6.00;5.50;;;15.20;99.90;;;;;;6139784;23;20447;-76
2023/06/08 03:34:38;;;;;;;5.90;5.40;;;15.10;99.90;;;;;;6149851;23;20425;-77
2023/06/08 03:37:05;;;;;;;6.00;5.60;;;15.10;99.90;;;;;;6149683;23;20500;-77
2023/06/08 03:39:32;;;;;;;5.50;5.10;;;15.00;99.90;;;;;;6145928;23;20459;-77
2023/06/08 03:42:00;;;;;;;5.80;5.40;;;15.00;99.90;;;;;;6147531;23;20432;-76
2023/06/08 03:44:27;;;;;;;6.33;5.83;;;14.90;99.90;;;;;;6149296;23;20998;-77
2023/06/08 03:46:54;;;;;;;5.97;5.57;;;14.90;99.90;;;;;;6119841;23;20499;-76
2023/06/08 03:49:21;;;;;;;5.40;5.00;;;14.80;99.90;;;;;;6143555;23;20459;-76
2023/06/08 03:51:48;;;;;;;5.00;4.70;;;14.80;99.90;;;;;;6139866;23;20442;-76
2023/06/08 03:54:15;;;;;;;5.83;5.43;;;14.80;99.90;;;;;;6143230;23;20488;-77
2023/06/08 03:56:43;;;;;;;5.60;5.10;;;14.80;99.90;;;;;;6148841;23;20933;-76
2023/06/08 03:59:12;;;;;;;5.90;5.50;;;14.80;99.90;;;;;;6128330;23;21023;-76
2023/06/08 04:01:41;;;;;;;6.23;5.80;;;14.80;99.90;;;;;;6142992;23;20460;-77
2023/06/08 04:04:08;;;;;;;5.80;5.40;;;14.90;99.90;;;;;;6149618;23;20904;-76
2023/06/08 04:06:38;;;;;;;5.77;5.37;;;14.90;99.90;;;;;;6136123;23;20468;-79
2023/06/08 04:09:05;;;;;;;5.40;5.10;;;15.00;99.90;;;;;;6139088;23;20513;-77
2023/06/08 04:11:32;;;;;;;5.40;5.00;;;15.10;99.90;;;;;;6147499;23;20436;-77
2023/06/08 04:13:59;;;;;;;5.30;4.90;;;15.20;99.90;;;;;;6142584;23;20443;-77
2023/06/08 04:16:28;;;;;;;5.57;4.90;;;15.20;99.90;;;;;;6147091;23;20932;-77
2023/06/08 04:18:55;;;;;;;5.40;4.90;;;15.30;99.90;;;;;;6147780;23;21265;-77
2023/06/08 04:21:25;;;;;;;5.50;5.10;;;15.40;99.90;;;;;;6146988;23;20516;-77
2023/06/08 04:23:52;;;;;;;5.53;5.13;;;15.50;99.90;;;;;;6129383;23;20500;-80
2023/06/08 04:26:20;;;;;;;5.40;5.00;;;15.50;99.90;;;;;;6133695;23;20468;-77
2023/06/08 04:28:48;;;;;;;6.57;5.97;;;15.50;99.90;;;;;;6148465;23;20452;-79
2023/06/08 04:31:15;;;;;;;5.33;4.93;;;15.80;99.90;;;;;;6138386;23;20448;-77
2023/06/08 04:33:44;;;;;;;5.03;4.70;;;15.60;99.90;;;;;;6141291;23;20440;-82
2023/06/08 04:36:11;;;;;;;5.73;5.23;;;15.70;99.90;;;;;;6138120;23;21154;-81
2023/06/08 04:38:38;;;;;;;4.80;4.50;;;15.80;99.90;;;;;;6139268;23;20470;-80
2023/06/08 04:41:07;;;;;;;5.80;5.30;;;15.80;99.90;;;;;;6148810;23;20429;-81
2023/06/08 04:43:34;;;;;;;5.70;5.20;;;15.90;99.90;;;;;;6148951;23;20951;-78
2023/06/08 04:46:04;;;;;;;5.70;5.30;;;16.00;99.90;;;;;;6147307;23;20470;-82
2023/06/08 04:48:33;;;;;;;5.33;4.97;;;16.00;99.90;;;;;;6144356;23;20503;-78
2023/06/08 04:51:04;;;;;;;5.50;5.10;;;16.10;99.90;;;;;;6147329;23;20451;-82
2023/06/08 04:53:33;;;;;;;6.20;5.80;;;16.10;99.90;;;;;;6144842;23;20528;-83
2023/06/08 04:56:01;;;;;;;6.40;5.90;;;16.20;99.90;;;;;;6138787;23;20766;-79
2023/06/08 04:58:29;;;;;;;6.63;6.23;;;16.10;99.90;;;;;;6134685;23;20843;-78
2023/06/08 05:00:57;;;;;;;7.20;6.60;;;16.00;99.90;;;;;;6131499;23;21399;-81
2023/06/08 05:03:25;;;;;;;6.60;6.13;;;15.90;99.90;;;;;;6121662;23;22722;-84
2023/06/08 05:05:52;;;;;;;6.50;6.00;;;15.90;99.90;;;;;;6147268;23;21031;-76
2023/06/08 05:08:21;;;;;;;7.90;6.57;;;15.90;99.90;;;;;;6150626;23;20431;-73
2023/06/08 05:10:48;;;;;;;7.57;6.97;;;15.90;99.90;;;;;;6154056;23;20485;-77
2023/06/08 05:13:14;;;;;;;6.93;6.43;;;15.90;99.90;;;;;;6144960;23;20493;-77
2023/06/08 05:15:42;;;;;;;6.77;6.27;;;15.90;99.90;;;;;;6148225;23;20956;-78
2023/06/08 05:18:09;;;;;;;6.87;6.37;;;16.00;99.90;;;;;;6148866;23;20472;-78
2023/06/08 05:20:36;;;;;;;6.87;6.37;;;16.00;99.90;;;;;;6142462;23;20804;-78
2023/06/08 05:23:03;;;;;;;7.33;6.73;;;16.00;99.90;;;;;;6148782;23;20574;-77
2023/06/08 05:25:34;;;;;;;7.50;6.90;;;16.00;99.90;;;;;;6149177;23;20851;-78
2023/06/08 05:28:01;;;;;;;7.27;6.77;;;16.10;99.90;;;;;;6145788;23;20523;-78
2023/06/08 05:30:28;;;;;;;7.43;6.93;;;16.20;99.90;;;;;;6146725;23;20456;-78
2023/06/08 05:32:55;;;;;;;7.47;6.80;;;16.30;99.90;;;;;;6148830;23;20512;-78
2023/06/08 05:35:22;;;;;;;8.10;7.60;;;16.70;99.90;;;;;;6147419;23;20539;-77
2023/06/08 05:37:50;;;;;;;7.63;7.03;;;16.60;99.90;;;;;;6137291;23;20528;-77
2023/06/08 05:40:18;;;;;;;6.77;6.27;;;16.80;99.90;;;;;;6149751;23;20445;-78
2023/06/08 05:42:47;;;;;;;6.97;6.57;;;17.10;99.90;;;;;;6146035;23;20608;-78
2023/06/08 05:45:15;;;;;;;6.93;6.53;;;17.30;99.90;;;;;;6143616;23;20433;-79
2023/06/08 05:47:42;;;;;;;6.07;5.57;;;17.60;99.90;;;;;;6132937;23;20500;-79
2023/06/08 05:50:09;;;;;;;7.10;6.50;;;17.80;99.90;;;;;;6144375;23;20471;-81
2023/06/08 05:52:36;;;;;;;6.70;6.13;;;18.00;99.90;;;;;;6148944;23;20517;-87
2023/06/08 05:55:04;;;;;;;5.60;5.10;;;18.30;99.90;;;;;;6125419;23;20944;-90
2023/06/08 05:57:31;;;;;;;5.70;5.30;;;18.50;99.90;;;;;;6141759;23;20432;-90
2023/06/08 06:00:00;;;;;;;5.20;4.77;;;18.60;99.90;;;;;;6151941;23;20445;-77
2023/06/08 06:02:27;;;;;;;5.40;4.93;;;19.00;99.90;;;;;;6149386;23;20477;-78
2023/06/08 06:04:56;;;;;;;6.30;5.83;;;19.10;99.90;;;;;;6145388;23;20444;-83
2023/06/08 06:07:23;;;;;;;6.20;5.73;;;19.40;99.90;;;;;;6147252;23;20453;-74
2023/06/08 06:09:50;;;;;;;6.23;5.73;;;19.60;99.90;;;;;;6149516;23;20516;-75
2023/06/08 06:12:17;;;;;;;7.20;6.70;;;19.80;99.90;;;;;;6144250;23;20451;-78
2023/06/08 06:14:44;;;;;;;6.30;5.90;;;19.90;99.90;;;;;;6139275;23;20451;-79
2023/06/08 06:17:15;;;;;;;6.73;6.33;;;20.00;99.90;;;;;;6148293;23;20483;-82
2023/06/08 06:22:18;;;;;;;7.50;6.90;;;19.80;99.90;;;;;;5388301;22;20507;-79
2023/06/08 06:24:46;;;;;;;7.33;6.63;;;19.80;99.90;;;;;;5034527;28;20466;-79
2023/06/08 06:27:13;;;;;;;7.10;6.60;;;19.90;99.90;;;;;;5031068;28;20493;-80
2023/06/08 06:29:40;;;;;;;7.60;7.00;;;19.90;99.90;;;;;;5017723;28;20462;-79
2023/06/08 06:32:10;;;;;;;6.70;6.30;;;19.90;99.90;;;;;;5004952;28;20474;-78
2023/06/08 06:34:39;;;;;;;6.40;5.90;;;20.10;99.90;;;;;;5000387;28;20804;-78
2023/06/08 06:37:06;;;;;;;5.63;5.23;;;20.20;99.90;;;;;;5008309;28;21095;-78
2023/06/08 06:39:33;;;;;;;5.60;5.20;;;20.30;99.90;;;;;;4994539;28;20449;-79
2023/06/08 06:42:01;;;;;;;6.23;5.63;;;20.40;99.90;;;;;;4996685;28;20824;-79
2023/06/08 06:44:28;;;;;;;6.47;5.97;;;20.50;99.90;;;;;;5021833;28;20464;-80
2023/06/08 06:46:55;;;;;;;5.90;5.40;;;20.70;99.90;;;;;;5013051;28;20495;-79
2023/06/08 06:49:22;;;;;;;5.60;5.20;;;20.90;99.90;;;;;;4992478;28;20488;-79
2023/06/08 06:51:51;;;;;;;5.80;5.40;;;20.70;99.90;;;;;;5008426;28;20923;-79
2023/06/08 06:54:18;;;;;;;4.63;4.23;;;20.80;99.90;;;;;;4996771;28;20821;-79
2023/06/08 06:56:45;;;;;;;4.70;4.40;;;21.00;99.90;;;;;;5011864;28;20456;-80
2023/06/08 06:59:12;;;;;;;4.70;4.40;;;21.20;99.90;;;;;;5010471;28;20467;-80
2023/06/08 07:01:41;;;;;;;5.07;4.67;;;21.50;99.90;;;;;;5006329;28;20481;-79
2023/06/08 07:04:07;;;;;;;5.00;4.50;;;21.80;99.90;;;;;;5009215;28;20462;-77
2023/06/08 07:06:35;;;;;;;5.00;4.70;;;22.10;99.90;;;;;;5005840;28;20501;-74
2023/06/08 07:09:05;;;;;;;5.60;5.13;;;22.40;99.90;;;;;;4999313;28;20540;-75
2023/06/08 07:11:32;;;;;;;6.23;5.73;;;22.50;99.90;;;;;;5010911;28;20492;-74
2023/06/08 07:13:59;;;;;;;4.90;4.50;;;22.50;99.90;;;;;;5010485;28;20458;-74
2023/06/08 07:16:26;;;;;;;5.67;5.27;;;22.50;99.90;;;;;;5015883;28;20961;-74
2023/06/08 07:18:53;;;;;;;5.27;4.97;;;22.50;99.90;;;;;;5010806;28;20459;-74
2023/06/08 07:21:21;;;;;;;5.07;4.77;;;22.50;99.90;;;;;;5002142;28;20508;-74
2023/06/08 07:23:49;;;;;;;5.40;5.00;;;22.60;99.90;;;;;;5017290;28;20468;-73
2023/06/08 07:26:17;;;;;;;5.13;4.73;;;22.60;99.90;;;;;;4991205;28;20480;-74
2023/06/08 07:28:46;;;;;;;4.60;4.30;;;22.70;99.90;;;;;;5007016;28;20969;-74
2023/06/08 07:31:13;;;;;;;5.37;4.83;;;22.90;99.90;;;;;;5010666;28;21006;-74
2023/06/08 07:33:40;;;;;;;4.60;4.23;;;23.10;99.90;;;;;;5008505;28;20500;-74
2023/06/08 07:36:07;;;;;;;4.80;4.50;;;23.20;99.90;;;;;;4994604;28;20894;-75
2023/06/08 07:38:34;;;;;;;5.13;4.83;;;23.40;99.90;;;;;;5004979;28;20457;-74
2023/06/08 07:41:01;;;;;;;4.23;3.93;;;23.70;99.90;;;;;;4993253;28;20478;-75
2023/06/08 07:43:29;;;;;;;5.60;5.20;;;24.00;99.90;;;;;;5010251;28;20455;-74
2023/06/08 07:45:56;;;;;;;4.70;4.30;;;24.30;99.90;;;;;;5011375;28;20440;-75
2023/06/08 07:48:23;;;;;;;5.30;5.00;;;24.60;99.90;;;;;;5010845;28;21067;-75
2023/06/08 07:50:50;;;;;;;4.70;4.40;;;24.90;99.60;;;;;;5009837;28;20484;-75
2023/06/08 07:53:18;;;;;;;4.43;4.13;;;25.30;99.20;;;;;;5020074;28;20457;-74
2023/06/08 07:55:45;;;;;;;4.70;4.40;;;25.60;98.50;;;;;;5004475;28;20547;-73
2023/06/08 07:58:12;;;;;;;4.73;4.43;;;25.90;97.90;;;;;;5013847;28;20453;-73
2023/06/08 08:00:41;;;;;;;4.80;4.50;;;26.00;97.50;;;;;;5013710;28;20460;-74
2023/06/08 08:03:08;;;;;;;4.80;4.40;;;26.40;96.40;;;;;;4999887;28;20477;-74
2023/06/08 08:05:35;;;;;;;4.60;4.30;;;26.60;96.30;;;;;;5015089;28;20457;-74
2023/06/08 08:08:02;;;;;;;5.00;4.60;;;26.90;96.10;;;;;;5011823;28;20496;-75
2023/06/08 08:10:29;;;;;;;3.90;3.70;;;27.00;95.20;;;;;;5002621;28;20446;-75
2023/06/08 08:12:56;;;;;;;4.77;4.40;;;27.20;94.50;;;;;;5007209;28;20465;-74
2023/06/08 08:15:24;;;;;;;4.87;4.57;;;27.40;93.90;;;;;;5007645;28;20860;-74
2023/06/08 08:17:52;;;;;;;5.03;4.30;;;27.60;93.40;;;;;;5014769;28;20444;-74
2023/06/08 08:20:19;;;;;;;4.23;3.93;;;27.70;92.90;;;;;;5021217;28;20476;-74
2023/06/08 08:22:46;;;;;;;4.90;4.53;;;27.70;92.70;;;;;;5014495;28;20469;-74
2023/06/08 08:25:13;;;;;;;5.23;4.83;;;27.90;92.30;;;;;;5006923;28;20517;-78
2023/06/08 08:27:40;;;;;;;4.73;4.43;;;28.10;92.20;;;;;;4995055;28;20477;-78
2023/06/08 08:30:09;;;;;;;5.57;5.17;;;28.20;91.70;;;;;;5005398;28;20551;-77
2023/06/08 08:32:35;;;;;;;4.83;4.53;;;28.30;91.00;;;;;;5002440;28;20479;-78
2023/06/08 08:35:04;;;;;;;6.00;5.50;;;28.30;90.60;;;;;;5013914;28;20499;-75
2023/06/08 08:37:32;;;;;;;5.03;4.63;;;28.30;90.20;;;;;;5013940;28;20457;-80
2023/06/08 08:39:59;;;;;;;4.70;4.40;;;28.20;90.00;;;;;;5006840;28;20461;-78
2023/06/08 08:42:28;;;;;;;4.77;4.47;;;28.30;90.10;;;;;;5002108;28;20524;-78
2023/06/08 08:45:00;;;;;;;5.50;5.10;;;28.40;90.10;;;;;;4994895;28;20438;-78
2023/06/08 08:47:30;;;;;;;4.90;4.60;;;28.50;89.30;;;;;;4994728;28;20486;-78
2023/06/08 08:50:03;;;;;;;6.20;5.70;;;28.60;89.30;;;;;;5011669;28;20453;-78
2023/06/08 08:52:34;;;;;;;5.27;4.97;;;28.60;89.10;;;;;;5012979;28;20560;-78
2023/06/08 08:55:01;;;;;;;4.67;4.37;;;28.60;89.30;;;;;;5007252;28;20984;-78
2023/06/08 08:57:29;;;;;;;5.97;5.37;;;28.70;88.70;;;;;;5010378;28;20449;-79
2023/06/08 08:59:57;;;;;;;5.10;4.70;;;28.70;88.20;;;;;;5011493;28;20453;-79
2023/06/08 09:02:24;;;;;;;4.97;4.57;;;28.80;87.40;;;;;;5017529;28;20529;-79
2023/06/08 09:04:53;;;;;;;5.77;5.37;;;28.80;87.80;;;;;;5030716;28;20456;-79
2023/06/08 09:07:24;;;;;;;5.10;4.70;;;29.00;87.70;;;;;;5012167;28;22222;-79
2023/06/08 09:10:15;;;;;;;6.53;6.13;;;29.10;86.30;;;;;;5010272;28;20536;-79
2023/06/08 09:12:44;;;;;;;5.63;5.13;;;29.30;86.60;;;;;;5004343;28;20974;-80
2023/06/08 09:15:12;;;;;;;6.10;5.70;;;29.50;85.80;;;;;;4994665;28;20543;-80
2023/06/08 09:17:40;;;;;;;6.00;5.50;;;29.50;85.70;;;;;;4994146;28;20450;-80
2023/06/08 09:20:10;;;;;;;6.20;5.70;;;29.60;85.20;;;;;;5005539;28;20491;-79
2023/06/08 09:22:37;;;;;;;5.37;5.07;;;29.60;85.50;;;;;;5029535;28;20562;-80
2023/06/08 09:25:05;;;;;;;5.90;5.50;;;29.70;84.10;;;;;;5033546;28;20453;-80
2023/06/08 09:27:33;;;;;;;5.00;4.70;;;29.70;83.50;;;;;;4997390;28;20543;-79
2023/06/08 09:30:01;;;;;;;4.97;4.67;;;29.80;83.50;;;;;;4993436;28;20442;-79
2023/06/08 09:32:32;;;;;;;4.83;4.50;;;30.00;83.30;;;;;;4992861;28;20835;-80
2023/06/08 09:35:02;;;;;;;5.63;5.33;;;30.10;81.70;;;;;;5010999;28;20956;-80
2023/06/08 09:37:30;;;;;;;5.80;5.40;;;30.20;81.30;;;;;;5012185;28;20457;-80
2023/06/08 09:39:58;;;;;;;5.10;4.70;;;30.30;79.30;;;;;;5008338;28;20464;-79
2023/06/08 09:42:42;;;;;;;5.30;5.00;;;30.20;79.90;;;;;;4990909;28;20614;-79
2023/06/08 09:45:12;;;;;;;4.83;4.53;;;30.20;78.60;;;;;;5003170;28;20497;-80
2023/06/08 09:47:40;;;;;;;4.93;4.53;;;30.30;77.60;;;;;;5012849;28;20519;-79
2023/06/08 09:50:08;;;;;;;5.00;4.70;;;30.50;79.30;;;;;;5011789;28;20452;-79
2023/06/08 09:52:37;;;;;;;5.27;4.97;;;30.80;80.20;;;;;;5021362;28;20459;-79
2023/06/08 09:55:06;;;;;;;6.10;5.53;;;31.20;79.50;;;;;;5001139;28;20548;-79
2023/06/08 09:57:35;;;;;;;5.40;5.10;;;31.70;76.20;;;;;;4991365;28;20465;-79
2023/06/08 10:00:14;;;;;;;5.10;4.80;;;31.80;75.30;;;;;;5002983;28;20458;-79
2023/06/08 10:02:53;;;;;;;6.20;5.80;;;32.00;75.00;;;;;;5000728;28;20457;-79
2023/06/08 10:05:22;;;;;;;5.77;5.47;;;32.30;75.10;;;;;;5009475;28;20916;-79
2023/06/08 10:07:53;;;;;;;5.07;4.77;;;32.60;74.20;;;;;;4997658;28;20488;-79
2023/06/08 10:10:23;;;;;;;4.87;4.60;;;32.90;72.50;;;;;;5007436;28;20460;-79
2023/06/08 10:12:50;;;;;;;5.60;5.30;;;33.10;70.80;;;;;;4997057;28;20450;-80
2023/06/08 10:15:21;;;;;;;6.33;5.93;;;33.20;69.70;;;;;;5010400;28;21213;-80
2023/06/08 10:17:49;;;;;;;5.80;5.50;;;33.20;69.90;;;;;;5010609;28;20842;-80
2023/06/08 10:20:17;;;;;;;6.30;5.80;;;33.10;70.20;;;;;;4998338;28;20457;-81
2023/06/08 10:22:45;;;;;;;6.33;5.90;;;33.10;69.70;;;;;;4996614;28;20458;-80
2023/06/08 10:25:16;;;;;;;6.07;5.67;;;33.10;67.80;;;;;;4996997;28;20551;-81
2023/06/08 10:27:50;;;;;;;4.80;4.50;;;32.90;66.70;;;;;;4999867;28;20481;-81
2023/06/08 10:30:29;;;;;;;5.07;4.67;;;32.80;68.50;;;;;;5022615;28;20507;-81
2023/06/08 10:33:09;;;;;;;5.00;4.60;;;32.90;68.00;;;;;;5020504;28;20449;-81
2023/06/08 10:35:36;;;;;;;5.60;5.30;;;33.10;65.80;;;;;;4990886;28;20965;-81
2023/06/08 10:38:11;;;;;;;5.03;4.73;;;33.10;65.60;;;;;;5007273;28;20461;-81
2023/06/08 10:40:42;;;;;;;5.53;5.23;;;33.30;65.00;;;;;;4995958;28;20604;-82
2023/06/08 10:43:09;;;;;;;4.60;4.30;;;33.50;64.30;;;;;;4999138;28;20468;-81
2023/06/08 10:45:40;;;;;;;4.73;4.43;;;33.80;64.00;;;;;;5001131;28;20461;-81
2023/06/08 10:48:09;;;;;;;4.87;4.33;;;34.00;62.10;;;;;;4993081;28;20576;-81
2023/06/08 10:50:40;;;;;;;4.80;4.50;;;34.30;60.50;;;;;;4998593;28;20841;-81
2023/06/08 10:53:07;;;;;;;5.17;4.87;;;34.50;60.70;;;;;;5012308;28;20816;-82
2023/06/08 10:55:34;;;;;;;5.90;5.40;;;34.80;61.10;;;;;;5009945;28;20492;-82
2023/06/08 10:58:06;;;;;;;5.77;5.27;;;35.00;60.00;;;;;;5021650;28;20467;-82
2023/06/08 11:00:45;;;;;;;6.10;5.50;;;35.10;59.80;;;;;;4997778;28;20985;-81
2023/06/08 11:03:18;;;;;;;5.60;5.30;;;34.90;59.60;;;;;;4985741;28;21000;-82
2023/06/08 11:05:50;;;;;;;5.67;5.20;;;34.90;59.20;;;;;;4990838;28;20536;-82
2023/06/08 11:08:17;;;;;;;5.33;5.03;;;34.90;56.30;;;;;;5006854;28;20488;-81
2023/06/08 11:10:51;;;;;;;5.20;4.80;;;34.70;55.70;;;;;;4990621;28;20495;-81
2023/06/08 11:13:18;;;;;;;5.73;5.33;;;34.60;56.70;;;;;;4990338;28;20442;-81
2023/06/08 11:15:48;;;;;;;5.50;5.13;;;34.50;55.10;;;;;;4990429;28;20565;-81
2023/06/08 11:18:19;;;;;;;5.43;5.13;;;34.40;56.70;;;;;;5010465;28;20457;-81
2023/06/08 11:20:46;;;;;;;5.13;4.73;;;34.50;57.20;;;;;;5009499;28;20535;-81
2023/06/08 11:23:14;;;;;;;5.63;5.33;;;34.70;57.10;;;;;;5013824;28;20452;-82
2023/06/08 11:25:44;;;;;;;5.47;5.17;;;35.00;57.90;;;;;;5015908;28;20457;-82
2023/06/08 11:28:12;;;;;;;5.17;4.87;;;35.10;57.20;;;;;;5007011;28;20575;-81
2023/06/08 11:30:39;;;;;;;5.77;5.37;;;35.20;57.40;;;;;;4997412;28;20469;-80
2023/06/08 11:33:09;;;;;;;5.33;5.03;;;35.40;56.50;;;;;;5003397;28;20946;-80
2023/06/08 11:35:36;;;;;;;5.77;5.47;;;35.60;55.10;;;;;;4998386;28;20461;-81
2023/06/08 12:23:37;;;;;;;6.50;6.07;;;36.50;50.80;;;;;;6205065;22;20507;-81
2023/06/08 12:26:04;;;;;;;6.23;5.83;;;36.20;51.00;;;;;;6158159;23;20435;-85
2023/06/08 12:28:32;;;;;;;6.47;6.07;;;35.80;51.70;;;;;;6151090;23;20501;-81
2023/06/08 12:31:00;;;;;;;5.23;4.93;;;35.10;51.60;;;;;;6144607;23;20444;-85
2023/06/08 12:33:28;;;;;;;5.73;5.43;;;34.80;52.50;;;;;;6155503;23;20444;-86
2023/06/08 12:35:55;;;;;;;5.70;5.30;;;34.50;52.40;;;;;;6156361;23;20439;-86
2023/06/08 12:38:22;;;;;;;6.00;5.60;;;34.50;51.90;;;;;;6145623;23;20515;-86
2023/06/08 12:40:52;;;;;;;6.10;5.70;;;34.50;52.90;;;;;;6143509;23;20464;-86
2023/06/08 12:43:20;;;;;;;6.00;5.60;;;34.40;52.50;;;;;;6155176;23;21195;-86
2023/06/08 12:45:48;;;;;;;11.07;5.53;;;33.50;54.60;;;;;;6138554;23;20445;-86
2023/06/08 12:48:15;;;;;;;5.00;4.70;;;31.90;54.50;;;;;;6126563;23;20417;-85
2023/06/08 12:50:42;;;;;;;5.63;5.13;;;30.40;55.00;;;;;;6157041;23;20464;-86
2023/06/08 12:53:09;;;;;;;7.50;5.10;;;29.30;55.90;;;;;;6132688;23;20803;-86
2023/06/08 12:55:37;;;;;;;7.80;4.93;;;27.40;57.10;;;;;;6147989;23;20523;-88
2023/06/08 12:58:06;;;;;;;5.30;4.88;;;26.00;59.50;;;;;;6142017;23;20458;-89
2023/06/08 13:00:33;;;;;;;5.73;5.23;;;25.10;62.10;;;;;;6138869;23;20345;-79
2023/06/08 13:03:02;;;;;;;6.10;5.60;;;24.40;67.10;;;;;;6149262;23;20436;-86
2023/06/08 13:05:29;;;;;;;6.97;6.30;;;23.70;72.50;;;;;;6150649;23;20190;-88
2023/06/08 13:08:05;;;;;;;11.07;7.43;;;22.40;83.80;;;;;;6155749;23;20525;-85
2023/06/08 13:10:32;;;;;;;10.60;7.73;;;21.10;96.00;;;;;;6156713;23;20459;-84
2023/06/08 13:12:59;;;;;;;16.47;10.70;;;19.80;99.90;;;;;;6167326;23;20439;-85
2023/06/08 13:15:28;;;;;;;15.43;10.57;;;18.50;99.90;;;;;;6135130;23;20983;-77
2023/06/08 13:17:56;;;;;;;12.40;10.83;;;17.60;99.90;;;;;;6143001;23;20974;-87
2023/06/08 13:20:23;;;;;;;14.68;12.55;;;16.80;99.90;;;;;;6156198;23;20414;-84
2023/06/08 13:22:49;;;;;;;13.77;12.47;;;16.20;99.90;;;;;;6155321;23;20435;-84
2023/06/08 13:25:17;;;;;;;14.90;13.43;;;15.90;99.90;;;;;;6155764;23;20942;-85
2023/06/08 13:27:44;;;;;;;17.50;16.07;;;15.70;99.90;;;;;;6137513;23;20463;-85
2023/06/08 13:30:12;;;;;;;17.80;16.10;;;15.80;99.90;;;;;;6125362;23;20490;-85
2023/06/08 13:32:40;;;;;;;20.03;17.90;;;15.90;99.90;;;;;;6152464;23;20423;-84
2023/06/08 13:35:08;;;;;;;19.37;17.33;;;16.10;99.90;;;;;;6150435;23;20428;-85
2023/06/08 13:37:35;;;;;;;15.43;14.03;;;16.10;99.90;;;;;;6162464;23;20831;-84
2023/06/08 13:40:02;;;;;;;24.17;21.73;;;16.20;99.90;;;;;;6145747;23;20539;-84